Time;durP1;ratioP1;P1;durP2;ratioP2;P2;SDS_P1;SDS_P2;PMS_P1;PMS_P2;Temp;Humidity;BMP_temperature;BMP_pressure;BME280_temperature;BME280_humidity;BME280_pressure;Samples;Min_cycle;Max_cycle;Signal;HPM_P1;HPM_P2
2022/06/11 00:01:12;;;;;;;;;;;14.30;99.90;;;;;;4967970;28;19910;-63
2022/06/11 00:03:38;;;;;;;;;;;14.30;99.90;;;;;;4969040;28;20381;-63
2022/06/11 00:06:04;;;;;;;;;;;14.30;99.90;;;;;;4972360;28;19914;-63
2022/06/11 00:08:29;;;;;;;;;;;14.20;99.90;;;;;;4974679;28;19921;-62
2022/06/11 00:10:55;;;;;;;;;;;14.20;99.90;;;;;;4974616;28;20000;-62
2022/06/11 00:13:22;;;;;;;;;;;14.10;99.90;;;;;;4974683;28;19906;-62
2022/06/11 00:15:48;;;;;;;;;;;14.10;99.90;;;;;;4974728;28;19910;-63
2022/06/11 00:18:13;;;;;;;;;;;14.10;99.90;;;;;;4974428;28;19906;-63
2022/06/11 00:20:39;;;;;;;;;;;14.00;99.90;;;;;;4974293;28;19956;-63
2022/06/11 00:23:05;;;;;;;;;;;14.00;99.90;;;;;;4974265;28;20264;-62
2022/06/11 00:25:32;;;;;;;;;;;13.90;99.90;;;;;;4974042;28;19970;-63
2022/06/11 00:27:58;;;;;;;;;;;14.00;99.90;;;;;;4974198;28;19906;-62
2022/06/11 00:30:24;;;;;;;;;;;13.90;99.90;;;;;;4974028;28;19913;-62
2022/06/11 00:32:50;;;;;;;;;;;13.90;99.90;;;;;;4974183;28;20012;-62
2022/06/11 00:35:16;;;;;;;;;;;13.90;99.90;;;;;;4974156;28;19999;-62
2022/06/11 00:37:41;;;;;;;;;;;13.90;99.90;;;;;;4973710;28;19918;-62
2022/06/11 00:40:08;;;;;;;;;;;13.90;99.90;;;;;;4974105;28;19917;-62
2022/06/11 00:42:34;;;;;;;;;;;13.80;99.90;;;;;;4973884;28;19906;-63
2022/06/11 00:45:12;;;;;;;;;;;13.80;99.90;;;;;;4973726;28;19914;-62
2022/06/11 00:47:38;;;;;;;;;;;13.80;99.90;;;;;;4973972;28;19989;-62
2022/06/11 00:50:15;;;;;;;;;;;13.80;99.90;;;;;;4973827;28;20392;-62
2022/06/11 00:52:42;;;;;;;;;;;13.80;99.90;;;;;;4973658;28;20192;-62
2022/06/11 00:55:16;;;;;;;;;;;13.80;99.90;;;;;;4973940;28;19917;-62
2022/06/11 00:57:44;;;;;;;;;;;13.70;99.90;;;;;;4973910;28;19906;-62
2022/06/11 01:00:15;;;;;;;;;;;13.70;99.90;;;;;;4973556;28;19913;-62
2022/06/11 01:02:42;;;;;;;;;;;13.70;99.90;;;;;;4971196;28;20259;-62
2022/06/11 01:05:08;;;;;;;;;;;13.70;99.90;;;;;;4970428;28;19929;-63
2022/06/11 01:07:37;;;;;;;;;;;13.70;99.90;;;;;;4971866;28;19906;-62
2022/06/11 01:10:17;;;;;;;;;;;13.70;99.90;;;;;;4973448;28;19914;-62
2022/06/11 01:12:48;;;;;;;;;;;13.70;99.90;;;;;;4973342;28;20330;-62
2022/06/11 01:15:16;;;;;;;;;;;13.70;99.90;;;;;;4973419;28;20370;-62
2022/06/11 01:17:52;;;;;;;;;;;13.60;99.90;;;;;;4973282;28;20378;-62
2022/06/11 01:20:45;;;;;;;;;;;13.60;99.90;;;;;;4973631;28;19909;-63
2022/06/11 01:23:11;;;;;;;;;;;13.60;99.90;;;;;;4968876;28;20393;-63
2022/06/11 01:25:49;;;;;;;;;;;13.70;99.90;;;;;;4958819;28;19914;-62
2022/06/11 01:28:18;;;;;;;;;;;13.70;99.90;;;;;;4973115;28;19906;-62
2022/06/11 01:30:50;;;;;;;;;;;13.70;99.90;;;;;;4972963;28;19906;-63
2022/06/11 01:33:25;;;;;;;;;;;13.60;99.90;;;;;;4973436;28;19997;-63
2022/06/11 01:36:00;;;;;;;;;;;13.60;99.90;;;;;;4972743;28;20000;-61
2022/06/11 01:38:29;;;;;;;;;;;13.60;99.90;;;;;;4972933;28;19922;-63
2022/06/11 01:41:00;;;;;;;;;;;13.50;99.90;;;;;;4973124;28;20001;-62
2022/06/11 01:43:31;;;;;;;;;;;13.50;99.90;;;;;;4972943;28;19906;-62
2022/06/11 01:45:59;;;;;;;;;;;13.50;99.90;;;;;;4971502;28;19918;-63
2022/06/11 01:48:27;;;;;;;;;;;13.40;99.90;;;;;;4969412;28;19906;-63
2022/06/11 01:50:55;;;;;;;;;;;13.40;99.90;;;;;;4970791;28;20048;-62
2022/06/11 01:53:21;;;;;;;;;;;13.30;99.90;;;;;;4972879;28;19952;-63
2022/06/11 01:55:53;;;;;;;;;;;13.30;99.90;;;;;;4972970;28;20012;-62
2022/06/11 01:58:28;;;;;;;;;;;13.20;99.90;;;;;;4970878;28;19906;-63
2022/06/11 02:01:00;;;;;;;;;;;13.20;99.90;;;;;;4969193;28;19926;-62
2022/06/11 02:03:32;;;;;;;;;;;13.10;99.90;;;;;;4969337;28;20333;-63
2022/06/11 02:06:16;;;;;;;;;;;13.10;99.90;;;;;;4969261;28;19960;-62
2022/06/11 02:09:05;;;;;;;;;;;13.10;99.90;;;;;;4969253;28;19910;-63
2022/06/11 02:11:39;;;;;;;;;;;13.00;99.90;;;;;;4969300;28;19993;-62
2022/06/11 02:14:27;;;;;;;;;;;13.00;99.90;;;;;;4969072;28;19906;-63
2022/06/11 02:16:57;;;;;;;;;;;12.90;99.90;;;;;;4968728;28;19961;-62
2022/06/11 02:19:25;;;;;;;;;;;12.90;99.90;;;;;;4969037;28;20344;-62
2022/06/11 02:21:56;;;;;;;;;;;12.90;99.90;;;;;;4968918;28;19948;-62
2022/06/11 02:24:30;;;;;;;;;;;12.80;99.90;;;;;;4969019;28;20482;-63
2022/06/11 02:26:57;;;;;;;;;;;12.90;99.90;;;;;;4968580;28;20553;-63
2022/06/11 02:29:23;;;;;;;;;;;12.90;99.90;;;;;;4968991;28;20437;-62
2022/06/11 02:31:50;;;;;;;;;;;12.80;99.90;;;;;;4968945;28;19906;-62
2022/06/11 02:34:17;;;;;;;;;;;12.80;99.90;;;;;;4969089;28;19910;-62
2022/06/11 02:36:44;;;;;;;;;;;12.70;99.90;;;;;;4968827;28;19976;-62
2022/06/11 02:39:10;;;;;;;;;;;12.70;99.90;;;;;;4968786;28;19922;-62
2022/06/11 02:41:36;;;;;;;;;;;12.70;99.90;;;;;;4968809;28;19910;-62
2022/06/11 02:44:01;;;;;;;;;;;12.70;99.90;;;;;;4968854;28;19914;-62
2022/06/11 02:46:45;;;;;;;;;;;12.70;99.90;;;;;;4968369;28;19918;-62
2022/06/11 02:49:10;;;;;;;;;;;12.70;99.90;;;;;;4968730;28;19906;-62
2022/06/11 02:51:36;;;;;;;;;;;12.70;99.90;;;;;;4968170;28;19918;-62
2022/06/11 02:54:02;;;;;;;;;;;12.70;99.90;;;;;;4968869;28;20382;-62
2022/06/11 02:56:28;;;;;;;;;;;12.70;99.90;;;;;;4967058;28;20287;-62
2022/06/11 02:58:53;;;;;;;;;;;12.70;99.90;;;;;;4968319;28;20351;-62
2022/06/11 03:01:20;;;;;;;;;;;12.70;99.90;;;;;;4968485;28;19913;-62
2022/06/11 03:03:45;;;;;;;;;;;12.70;99.90;;;;;;4968632;28;19906;-62
2022/06/11 03:06:11;;;;;;;;;;;12.60;99.90;;;;;;4968364;28;20066;-62
2022/06/11 03:08:37;;;;;;;;;;;12.70;99.90;;;;;;4968710;28;19924;-62
2022/06/11 03:11:03;;;;;;;;;;;12.60;99.90;;;;;;4968722;28;19913;-62
2022/06/11 03:13:30;;;;;;;;;;;12.60;99.90;;;;;;4968434;28;19969;-62
2022/06/11 03:15:56;;;;;;;;;;;12.60;99.90;;;;;;4968557;28;19906;-62
2022/06/11 03:18:22;;;;;;;;;;;12.60;99.90;;;;;;4964079;28;19937;-62
2022/06/11 03:20:48;;;;;;;;;;;12.50;99.90;;;;;;4948789;29;19965;-62
2022/06/11 03:23:14;;;;;;;;;;;12.50;99.90;;;;;;4950361;28;19949;-62
2022/06/11 03:25:40;;;;;;;;;;;12.50;99.90;;;;;;4968560;28;19937;-62
2022/06/11 03:28:07;;;;;;;;;;;12.50;99.90;;;;;;4957156;28;19917;-62
2022/06/11 03:30:33;;;;;;;;;;;12.50;99.90;;;;;;4948344;28;19907;-62
2022/06/11 03:32:58;;;;;;;;;;;12.50;99.90;;;;;;4948953;29;19910;-62
2022/06/11 03:35:24;;;;;;;;;;;12.50;99.90;;;;;;4953628;28;19953;-62
2022/06/11 03:37:49;;;;;;;;;;;12.50;99.90;;;;;;4968482;28;19922;-62
2022/06/11 03:40:15;;;;;;;;;;;12.50;99.90;;;;;;4971452;28;19916;-63
2022/06/11 03:42:41;;;;;;;;;;;12.50;99.90;;;;;;4971828;28;19910;-62
2022/06/11 03:45:08;;;;;;;;;;;12.50;99.90;;;;;;4972238;28;19918;-62
2022/06/11 03:47:36;;;;;;;;;;;12.50;99.90;;;;;;4975019;28;20012;-62
2022/06/11 03:50:03;;;;;;;;;;;12.50;99.90;;;;;;4975128;28;19913;-62
2022/06/11 03:52:30;;;;;;;;;;;12.50;99.90;;;;;;4974636;28;19906;-62
2022/06/11 03:54:56;;;;;;;;;;;12.50;99.90;;;;;;4975113;28;19950;-62
2022/06/11 03:57:22;;;;;;;;;;;12.50;99.90;;;;;;4974811;28;19956;-62
2022/06/11 03:59:48;;;;;;;;;;;12.50;99.90;;;;;;4974994;28;19906;-62
2022/06/11 04:02:14;;;;;;;;;;;12.50;99.90;;;;;;4974564;28;19912;-62
2022/06/11 04:04:39;;;;;;;;;;;12.50;99.90;;;;;;4974771;28;19918;-62
2022/06/11 04:07:05;;;;;;;;;;;12.60;99.90;;;;;;4974369;28;19906;-62
2022/06/11 04:09:35;;;;;;;;;;;12.50;99.90;;;;;;4974558;28;19910;-62
2022/06/11 04:12:01;;;;;;;;;;;12.60;99.90;;;;;;4974578;28;20363;-62
2022/06/11 04:14:27;;;;;;;;;;;12.60;99.90;;;;;;4974413;28;19906;-62
2022/06/11 04:16:58;;;;;;;;;;;12.60;99.90;;;;;;4972345;28;19910;-62
2022/06/11 04:19:26;;;;;;;;;;;12.60;99.90;;;;;;4971339;28;19996;-62
2022/06/11 04:21:53;;;;;;;;;;;12.60;99.90;;;;;;4973135;28;19914;-62
2022/06/11 04:24:19;;;;;;;;;;;12.60;99.90;;;;;;4974367;28;19914;-62
2022/06/11 04:26:46;;;;;;;;;;;12.60;99.90;;;;;;4974153;28;19916;-61
2022/06/11 04:29:13;;;;;;;;;;;12.70;99.90;;;;;;4974478;28;19987;-62
2022/06/11 04:31:38;;;;;;;;;;;12.70;99.90;;;;;;4972259;28;19906;-62
2022/06/11 04:34:04;;;;;;;;;;;12.70;99.90;;;;;;4971336;28;19956;-62
2022/06/11 04:36:31;;;;;;;;;;;12.70;99.90;;;;;;4971176;28;20291;-61
2022/06/11 04:38:56;;;;;;;;;;;12.70;99.90;;;;;;4974125;28;20008;-61
2022/06/11 04:41:23;;;;;;;;;;;12.80;99.90;;;;;;4973904;28;20019;-61
2022/06/11 04:43:49;;;;;;;;;;;12.80;99.90;;;;;;4974053;28;19909;-62
2022/06/11 04:46:15;;;;;;;;;;;12.90;99.90;;;;;;4973526;28;19918;-61
2022/06/11 04:48:41;;;;;;;;;;;12.90;99.90;;;;;;4973898;28;19910;-62
2022/06/11 04:51:07;;;;;;;;;;;13.00;99.90;;;;;;4973258;28;19906;-62
2022/06/11 04:53:33;;;;;;;;;;;13.00;99.90;;;;;;4973825;28;20044;-61
2022/06/11 04:55:58;;;;;;;;;;;13.10;99.90;;;;;;4973883;28;20005;-62
2022/06/11 04:58:24;;;;;;;;;;;13.20;99.90;;;;;;4973830;28;19964;-61
2022/06/11 05:00:50;;;;;;;;;;;13.20;99.90;;;;;;4972632;28;19916;-61
2022/06/11 05:03:15;;;;;;;;;;;13.30;99.90;;;;;;4970368;28;19917;-61
2022/06/11 05:05:41;;;;;;;;;;;13.40;99.90;;;;;;4969964;28;19914;-62
2022/06/11 05:08:07;;;;;;;;;;;13.50;99.90;;;;;;4970445;28;20008;-61
2022/06/11 05:10:36;;;;;;;;;;;13.60;99.90;;;;;;4970591;28;19942;-61
2022/06/11 05:13:02;;;;;;;;;;;13.60;99.90;;;;;;4970730;28;20441;-62
2022/06/11 05:15:28;;;;;;;;;;;13.70;99.90;;;;;;4970510;28;19973;-61
2022/06/11 05:17:54;;;;;;;;;;;13.80;99.90;;;;;;4970130;28;19960;-61
2022/06/11 05:20:19;;;;;;;;;;;13.80;99.90;;;;;;4967297;28;20008;-61
2022/06/11 05:22:45;;;;;;;;;;;13.90;99.90;;;;;;4969883;28;19920;-62
2022/06/11 05:25:11;;;;;;;;;;;14.00;99.90;;;;;;4970270;28;19918;-61
2022/06/11 05:27:40;;;;;;;;;;;14.10;99.90;;;;;;4970709;28;19910;-62
2022/06/11 05:30:15;;;;;;;;;;;14.20;99.90;;;;;;4970206;28;20302;-61
2022/06/11 05:32:41;;;;;;;;;;;14.30;99.90;;;;;;4968350;28;19906;-61
2022/06/11 05:35:07;;;;;;;;;;;14.40;99.90;;;;;;4973216;28;19913;-61
2022/06/11 05:37:33;;;;;;;;;;;14.50;99.90;;;;;;4972710;28;19933;-61
2022/06/11 05:39:59;;;;;;;;;;;14.60;99.90;;;;;;4973199;28;19914;-61
2022/06/11 05:42:25;;;;;;;;;;;14.70;99.90;;;;;;4973365;28;20282;-62
2022/06/11 05:44:51;;;;;;;;;;;14.80;99.90;;;;;;4972745;28;19925;-62
2022/06/11 05:47:18;;;;;;;;;;;14.90;99.90;;;;;;4972883;28;19910;-61
2022/06/11 05:49:46;;;;;;;;;;;15.00;99.90;;;;;;4972719;28;19906;-61
2022/06/11 05:52:14;;;;;;;;;;;15.10;99.90;;;;;;4972481;28;19910;-61
2022/06/11 05:54:40;;;;;;;;;;;15.20;99.90;;;;;;4972749;28;19910;-62
2022/06/11 05:57:07;;;;;;;;;;;15.40;99.90;;;;;;4972608;28;20331;-61
2022/06/11 05:59:38;;;;;;;;;;;15.50;99.90;;;;;;4972692;28;19937;-62
2022/06/11 06:02:08;;;;;;;;;;;15.50;99.90;;;;;;4971946;28;19906;-62
2022/06/11 06:04:34;;;;;;;;;;;15.70;99.90;;;;;;4972434;28;20354;-62
2022/06/11 06:06:59;;;;;;;;;;;15.70;99.90;;;;;;4972232;28;19993;-61
2022/06/11 06:09:25;;;;;;;;;;;15.90;99.90;;;;;;4972400;28;19910;-61
2022/06/11 06:11:50;;;;;;;;;;;16.00;99.90;;;;;;4972414;28;19910;-62
2022/06/11 06:14:16;;;;;;;;;;;16.20;99.90;;;;;;4969802;28;20375;-62
2022/06/11 06:16:41;;;;;;;;;;;16.20;99.90;;;;;;4969076;28;20280;-62
2022/06/11 06:19:07;;;;;;;;;;;16.30;99.90;;;;;;4969510;28;19906;-62
2022/06/11 06:21:34;;;;;;;;;;;16.50;99.90;;;;;;4969040;28;19929;-62
2022/06/11 06:24:00;;;;;;;;;;;16.60;99.90;;;;;;4969111;28;19910;-63
2022/06/11 06:26:25;;;;;;;;;;;16.80;99.90;;;;;;4969100;28;19910;-62
2022/06/11 06:28:51;;;;;;;;;;;16.90;99.90;;;;;;4969426;28;20370;-62
2022/06/11 06:31:17;;;;;;;;;;;17.10;99.90;;;;;;4968849;28;19910;-62
2022/06/11 06:33:43;;;;;;;;;;;17.50;99.90;;;;;;4968698;28;20490;-63
2022/06/11 06:36:09;;;;;;;;;;;17.80;99.90;;;;;;4969331;28;19973;-63
2022/06/11 06:38:35;;;;;;;;;;;17.70;99.90;;;;;;4968898;28;20001;-62
2022/06/11 06:41:01;;;;;;;;;;;17.70;99.90;;;;;;4969809;28;19914;-62
2022/06/11 06:43:26;;;;;;;;;;;17.50;99.90;;;;;;4971882;28;19906;-62
2022/06/11 06:45:52;;;;;;;;;;;17.10;99.90;;;;;;4971464;28;20009;-62
2022/06/11 06:48:18;;;;;;;;;;;17.00;99.90;;;;;;4971695;28;19906;-62
2022/06/11 06:50:43;;;;;;;;;;;17.00;99.90;;;;;;4971463;28;20374;-63
2022/06/11 06:53:09;;;;;;;;;;;17.20;99.90;;;;;;4971631;28;19913;-63
2022/06/11 06:55:35;;;;;;;;;;;17.50;99.90;;;;;;4971796;28;19906;-63
2022/06/11 06:58:00;;;;;;;;;;;17.70;99.90;;;;;;4972005;28;19953;-63
2022/06/11 07:00:26;;;;;;;;;;;17.80;99.90;;;;;;4971788;28;19953;-63
2022/06/11 07:02:53;;;;;;;;;;;17.80;99.90;;;;;;4968680;28;19979;-63
2022/06/11 07:05:19;;;;;;;;;;;18.00;99.90;;;;;;4967946;28;19914;-63
2022/06/11 07:07:47;;;;;;;;;;;18.20;99.90;;;;;;4969712;28;20001;-63
2022/06/11 07:10:13;;;;;;;;;;;18.40;99.90;;;;;;4971633;28;19957;-63
2022/06/11 07:12:38;;;;;;;;;;;18.20;99.90;;;;;;4971771;28;19910;-63
2022/06/11 07:15:04;;;;;;;;;;;18.00;99.90;;;;;;4958594;28;19930;-63
2022/06/11 07:17:33;;;;;;;;;;;18.20;99.90;;;;;;4952090;28;19910;-63
2022/06/11 07:20:04;;;;;;;;;;;18.40;99.90;;;;;;4952194;28;19910;-63
2022/06/11 07:22:56;;;;;;;;;;;18.80;99.90;;;;;;4951983;29;19913;-63
2022/06/11 07:25:22;;;;;;;;;;;19.20;99.90;;;;;;4952513;28;19918;-63
2022/06/11 07:27:51;;;;;;;;;;;19.00;99.90;;;;;;4951996;29;19910;-63
2022/06/11 07:30:18;;;;;;;;;;;18.90;99.90;;;;;;4963747;28;19960;-63
2022/06/11 07:32:45;;;;;;;;;;;19.00;99.90;;;;;;4971219;28;19923;-64
2022/06/11 07:35:12;;;;;;;;;;;19.20;99.90;;;;;;4971324;28;20000;-63
2022/06/11 07:37:39;;;;;;;;;;;19.60;99.90;;;;;;4970996;28;19925;-63
2022/06/11 07:40:05;;;;;;;;;;;19.70;99.90;;;;;;4965335;28;19911;-63
2022/06/11 07:42:31;;;;;;;;;;;19.90;99.90;;;;;;4970288;28;19914;-63
2022/06/11 07:44:56;;;;;;;;;;;20.30;99.90;;;;;;4968117;28;19940;-63
2022/06/11 07:50:07;;;;;;;;;;;20.30;99.90;;;;;;4963296;28;19932;-63
2022/06/11 07:52:32;;;;;;;;;;;21.10;99.90;;;;;;4967799;28;19964;-64
2022/06/11 07:54:58;;;;;;;;;;;21.70;99.90;;;;;;4968238;28;19906;-64
2022/06/11 07:57:23;;;;;;;;;;;22.10;99.90;;;;;;4967890;28;19929;-64
2022/06/11 07:59:49;;;;;;;;;;;22.40;99.90;;;;;;4967632;28;19907;-64
2022/06/11 08:02:14;;;;;;;;;;;22.90;99.60;;;;;;4967770;28;20434;-64
2022/06/11 08:04:40;;;;;;;;;;;23.30;97.40;;;;;;4967850;28;19956;-64
2022/06/11 08:07:05;;;;;;;;;;;23.70;96.20;;;;;;4967756;28;19945;-64
2022/06/11 08:09:31;;;;;;;;;;;24.20;95.80;;;;;;4968073;28;20294;-62
2022/06/11 08:11:56;;;;;;;;;;;24.40;94.50;;;;;;4967687;28;20268;-64
2022/06/11 08:14:22;;;;;;;;;;;24.20;94.90;;;;;;4967975;28;19917;-63
2022/06/11 08:16:48;;;;;;;;;;;24.10;94.40;;;;;;4967705;28;19906;-63
2022/06/11 08:19:13;;;;;;;;;;;24.20;94.30;;;;;;4967852;28;19906;-63
2022/06/11 08:21:40;;;;;;;;;;;24.70;93.20;;;;;;4967512;28;19965;-64
2022/06/11 08:24:05;;;;;;;;;;;24.80;92.60;;;;;;4967832;28;19910;-64
2022/06/11 08:26:31;;;;;;;;;;;24.90;92.10;;;;;;4971501;28;19910;-65
2022/06/11 08:28:56;;;;;;;;;;;25.80;91.30;;;;;;4971400;28;19976;-64
2022/06/11 08:31:22;;;;;;;;;;;26.10;89.20;;;;;;4970970;28;19906;-63
2022/06/11 08:33:48;;;;;;;;;;;26.20;90.10;;;;;;4971079;28;19906;-63
2022/06/11 08:36:13;;;;;;;;;;;26.50;89.60;;;;;;4970727;28;19913;-63
2022/06/11 08:38:39;;;;;;;;;;;25.90;87.40;;;;;;4971120;28;19957;-64
2022/06/11 08:41:12;;;;;;;;;;;26.00;88.30;;;;;;4971185;28;19917;-64
2022/06/11 08:43:41;;;;;;;;;;;25.50;89.50;;;;;;4970875;28;19950;-64
2022/06/11 08:46:07;;;;;;;;;;;26.20;87.60;;;;;;4961035;28;20359;-62
2022/06/11 08:48:32;;;;;;;;;;;26.70;85.70;;;;;;4951693;29;19910;-63
2022/06/11 08:51:03;;;;;;;;;;;26.50;84.00;;;;;;4951265;29;20001;-63
2022/06/11 08:53:30;;;;;;;;;;;27.20;86.00;;;;;;4951124;29;19921;-63
2022/06/11 08:55:56;;;;;;;;;;;27.20;83.50;;;;;;4951280;29;20303;-64
2022/06/11 08:58:22;;;;;;;;;;;26.60;84.70;;;;;;4951521;29;19914;-63
2022/06/11 09:00:58;;;;;;;;;;;26.90;82.80;;;;;;4951310;28;20092;-63
2022/06/11 09:03:27;;;;;;;;;;;27.00;82.00;;;;;;4951182;29;19961;-63
2022/06/11 09:06:01;;;;;;;;;;;27.60;79.20;;;;;;4959307;28;19914;-63
2022/06/11 09:08:29;;;;;;;;;;;26.60;76.80;;;;;;4967689;28;19997;-63
2022/06/11 09:10:57;;;;;;;;;;;26.80;78.80;;;;;;4967172;28;20255;-63
2022/06/11 09:13:49;;;;;;;;;;;27.90;77.50;;;;;;4970428;28;19906;-63
2022/06/11 09:16:17;;;;;;;;;;;28.60;74.80;;;;;;4946581;28;19906;-62
2022/06/11 09:18:43;;;;;;;;;;;27.80;73.70;;;;;;4961642;28;19913;-65
2022/06/11 09:21:14;;;;;;;;;;;27.90;69.60;;;;;;4968461;28;19905;-66
2022/06/11 09:24:07;;;;;;;;;;;28.40;71.70;;;;;;4970163;28;20366;-65
2022/06/11 09:26:33;;;;;;;;;;;28.60;71.60;;;;;;4969978;28;19918;-68
2022/06/11 09:29:19;;;;;;;;;;;29.00;70.00;;;;;;4970187;28;19969;-64
2022/06/11 09:31:46;;;;;;;;;;;29.70;65.20;;;;;;4969381;28;20373;-63
2022/06/11 09:34:28;;;;;;;;;;;28.50;68.10;;;;;;4970310;28;19929;-64
2022/06/11 09:37:09;;;;;;;;;;;29.10;68.20;;;;;;4968455;28;19918;-65
2022/06/11 09:39:38;;;;;;;;;;;29.60;66.50;;;;;;4961926;28;20245;-63
2022/06/11 09:42:13;;;;;;;;;;;29.70;64.30;;;;;;4950880;29;20384;-65
2022/06/11 09:44:45;;;;;;;;;;;29.10;61.80;;;;;;4950542;29;19960;-65
2022/06/11 09:47:16;;;;;;;;;;;29.60;64.70;;;;;;4950727;29;20343;-65
2022/06/11 09:49:54;;;;;;;;;;;30.50;63.40;;;;;;4950402;29;19907;-63
2022/06/11 09:52:24;;;;;;;;;;;30.20;61.00;;;;;;4950095;29;19914;-65
2022/06/11 09:54:58;;;;;;;;;;;30.10;58.20;;;;;;4951178;29;19943;-64
2022/06/11 09:58:01;;;;;;;;;;;30.60;59.50;;;;;;4953408;29;19910;-67
2022/06/11 10:00:29;;;;;;;;;;;31.60;57.90;;;;;;4938745;29;19934;-68
2022/06/11 10:05:50;;;;;;;;;;;32.00;51.90;;;;;;4959761;28;19914;-66
2022/06/11 10:08:24;;;;;;;;;;;32.50;54.20;;;;;;4972986;28;19906;-65
2022/06/11 10:10:50;;;;;;;;;;;30.80;53.10;;;;;;4972624;28;20279;-67
2022/06/11 10:13:18;;;;;;;;;;;30.40;54.20;;;;;;4972365;28;20343;-65
2022/06/11 10:15:46;;;;;;;;;;;31.40;52.80;;;;;;4972465;28;19910;-67
2022/06/11 10:18:17;;;;;;;;;;;31.00;53.80;;;;;;4972018;28;20286;-66
2022/06/11 10:20:46;;;;;;;;;;;29.70;52.30;;;;;;4972187;28;19906;-66
2022/06/11 10:23:16;;;;;;;;;;;30.60;54.50;;;;;;4972146;28;19906;-67
2022/06/11 10:25:51;;;;;;;;;;;32.00;55.20;;;;;;4971947;28;20336;-66
2022/06/11 10:28:21;;;;;;;;;;;32.00;49.10;;;;;;4972180;28;19929;-66
2022/06/11 10:30:46;;;;;;;;;;;32.90;50.90;;;;;;4972087;28;19912;-66
2022/06/11 10:33:22;;;;;;;;;;;32.80;46.10;;;;;;4964827;28;19915;-65
2022/06/11 10:35:49;;;;;;;;;;;33.70;47.50;;;;;;4958257;28;19914;-64
2022/06/11 10:38:41;;;;;;;;;;;34.30;43.80;;;;;;4971751;28;19918;-63
2022/06/11 10:41:08;;;;;;;;;;;34.80;43.20;;;;;;4951262;29;19911;-67
2022/06/11 10:43:33;;;;;;;;;;;34.20;42.70;;;;;;4952037;28;20375;-65
2022/06/11 10:46:00;;;;;;;;;;;34.00;42.10;;;;;;4951907;28;19942;-65
2022/06/11 10:48:29;;;;;;;;;;;35.10;40.20;;;;;;4951618;28;19915;-64
2022/06/11 10:50:55;;;;;;;;;;;35.40;40.70;;;;;;4952035;29;19906;-64
2022/06/11 10:53:36;;;;;;;;;;;35.90;38.80;;;;;;4952261;29;19933;-63
2022/06/11 10:56:02;;;;;;;;;;;35.30;38.50;;;;;;4961370;28;20008;-64
2022/06/11 10:58:27;;;;;;;;;;;33.90;35.80;;;;;;4961789;28;19985;-63
2022/06/11 11:01:02;;;;;;;;;;;33.60;38.90;;;;;;4948980;29;19906;-63
2022/06/11 11:03:41;;;;;;;;;;;35.40;37.70;;;;;;4949156;29;20372;-63
2022/06/11 11:06:08;;;;;;;;;;;35.30;35.50;;;;;;4959105;28;19920;-63
2022/06/11 11:08:35;;;;;;;;;;;33.00;34.00;;;;;;4968281;28;19906;-62
2022/06/11 11:11:00;;;;;;;;;;;33.80;36.10;;;;;;4968035;28;19992;-63
2022/06/11 11:13:35;;;;;;;;;;;32.90;39.80;;;;;;4968627;28;20060;-63
2022/06/11 11:16:13;;;;;;;;;;;33.80;37.80;;;;;;4968183;28;20279;-63
2022/06/11 11:18:53;;;;;;;;;;;35.70;37.50;;;;;;4968292;28;20290;-63
2022/06/11 11:21:19;;;;;;;;;;;35.60;33.00;;;;;;4951175;28;19914;-63
2022/06/11 11:23:46;;;;;;;;;;;34.10;35.00;;;;;;4948848;29;19914;-63
2022/06/11 11:26:15;;;;;;;;;;;35.10;34.40;;;;;;4948646;29;19964;-63
2022/06/11 11:28:41;;;;;;;;;;;36.20;35.80;;;;;;4948908;29;19910;-63
2022/06/11 11:31:07;;;;;;;;;;;34.80;33.00;;;;;;4948845;29;19961;-63
2022/06/11 11:33:37;;;;;;;;;;;36.20;33.00;;;;;;4948661;29;19906;-64
2022/06/11 11:36:14;;;;;;;;;;;35.70;30.90;;;;;;4947920;28;19910;-61
2022/06/11 11:38:40;;;;;;;;;;;35.70;29.90;;;;;;4948981;28;20376;-59
2022/06/11 11:41:05;;;;;;;;;;;34.70;29.60;;;;;;4961326;28;20020;-62
2022/06/11 11:43:40;;;;;;;;;;;36.00;30.50;;;;;;4946953;29;19906;-59
2022/06/11 11:46:13;;;;;;;;;;;36.80;30.70;;;;;;4948526;29;20374;-62
2022/06/11 11:48:57;;;;;;;;;;;35.20;30.00;;;;;;4948064;29;19965;-60
2022/06/11 11:51:25;;;;;;;;;;;35.20;30.30;;;;;;4947920;29;19906;-62
2022/06/11 11:53:58;;;;;;;;;;;35.70;31.00;;;;;;4959297;28;19953;-59
2022/06/11 11:56:23;;;;;;;;;;;34.90;30.80;;;;;;4967511;28;19910;-58
2022/06/11 11:58:54;;;;;;;;;;;34.70;30.10;;;;;;4948585;28;19917;-59
2022/06/11 12:01:21;;;;;;;;;;;34.70;33.20;;;;;;4952001;28;19910;-61
2022/06/11 12:03:52;;;;;;;;;;;34.80;30.90;;;;;;4951394;29;20272;-61
2022/06/11 12:06:26;;;;;;;;;;;34.30;30.90;;;;;;4963632;28;20379;-61
2022/06/11 12:08:53;;;;;;;;;;;33.70;31.80;;;;;;4971575;28;19925;-62
2022/06/11 12:11:39;;;;;;;;;;;34.10;33.00;;;;;;4971586;28;19921;-61
2022/06/11 12:14:11;;;;;;;;;;;33.60;32.30;;;;;;4970942;28;19910;-62
2022/06/11 12:16:39;;;;;;;;;;;33.60;32.90;;;;;;4971633;28;19906;-61
2022/06/11 12:19:16;;;;;;;;;;;33.90;33.60;;;;;;4971329;28;20366;-61
2022/06/11 12:21:43;;;;;;;;;;;33.30;32.70;;;;;;4971051;28;20390;-61
2022/06/11 12:24:14;;;;;;;;;;;33.80;33.50;;;;;;4971362;28;20314;-62
2022/06/11 12:26:47;;;;;;;;;;;33.50;33.30;;;;;;4971466;28;20547;-61
2022/06/11 12:29:26;;;;;;;;;;;33.30;34.80;;;;;;4971285;28;19921;-62
2022/06/11 12:31:53;;;;;;;;;;;33.40;33.60;;;;;;4971174;28;19949;-61
2022/06/11 12:34:21;;;;;;;;;;;32.90;34.10;;;;;;4970866;28;19906;-61
2022/06/11 12:36:58;;;;;;;;;;;31.10;38.40;;;;;;4970727;28;19922;-61
2022/06/11 12:39:39;;;;;;;;;;;32.40;35.90;;;;;;4971151;28;19917;-61
2022/06/11 12:42:23;;;;;;;;;;;32.10;37.40;;;;;;4970840;28;20283;-62
2022/06/11 12:44:56;;;;;;;;;;;31.60;37.80;;;;;;4970823;28;20523;-62
2022/06/11 12:47:26;;;;;;;;;;;31.30;39.60;;;;;;4970909;28;19930;-62
2022/06/11 12:50:09;;;;;;;;;;;30.00;40.90;;;;;;4970930;28;19906;-62
2022/06/11 12:52:48;;;;;;;;;;;29.90;40.60;;;;;;4970629;28;20295;-63
2022/06/11 12:55:17;;;;;;;;;;;28.90;41.90;;;;;;4970816;28;19906;-63
2022/06/11 12:57:56;;;;;;;;;;;30.40;44.10;;;;;;4970947;28;19913;-62
2022/06/11 13:00:21;;;;;;;;;;;31.40;40.30;;;;;;4970577;28;19914;-61
2022/06/11 13:02:53;;;;;;;;;;;31.30;37.90;;;;;;4970540;28;19910;-61
2022/06/11 13:05:24;;;;;;;;;;;30.30;40.40;;;;;;4970139;28;20394;-60
2022/06/11 13:07:55;;;;;;;;;;;31.00;41.90;;;;;;4970045;28;19941;-61
2022/06/11 13:10:47;;;;;;;;;;;31.20;40.20;;;;;;4985101;28;19910;-61
2022/06/11 13:13:13;;;;;;;;;;;30.90;39.60;;;;;;4961876;28;19953;-60
2022/06/11 13:15:56;;;;;;;;;;;30.90;39.80;;;;;;4953955;28;20233;-60
2022/06/11 13:18:37;;;;;;;;;;;30.70;39.30;;;;;;4950626;29;19914;-61
2022/06/11 13:21:11;;;;;;;;;;;30.20;39.70;;;;;;4950633;28;20422;-61
2022/06/11 13:23:48;;;;;;;;;;;29.00;40.80;;;;;;4951061;29;19993;-62
2022/06/11 13:26:14;;;;;;;;;;;29.40;42.20;;;;;;4950757;29;20352;-61
2022/06/11 13:28:54;;;;;;;;;;;29.60;44.30;;;;;;4950759;28;19906;-61
2022/06/11 13:31:30;;;;;;;;;;;30.20;43.90;;;;;;4950814;29;19911;-61
2022/06/11 13:34:01;;;;;;;;;;;29.90;43.50;;;;;;4950203;28;20438;-60
2022/06/11 13:36:34;;;;;;;;;;;29.30;41.30;;;;;;4963356;28;20005;-60
2022/06/11 13:39:12;;;;;;;;;;;29.60;42.00;;;;;;4969840;28;19917;-60
2022/06/11 13:41:37;;;;;;;;;;;29.50;44.10;;;;;;4953127;28;19906;-61
2022/06/11 13:44:03;;;;;;;;;;;28.70;43.00;;;;;;4950105;28;19917;-62
2022/06/11 13:46:39;;;;;;;;;;;28.50;45.30;;;;;;4950262;28;20339;-63
2022/06/11 13:49:23;;;;;;;;;;;29.30;46.10;;;;;;4959126;28;20298;-62
2022/06/11 13:51:54;;;;;;;;;;;28.10;44.90;;;;;;4949388;29;19910;-63
2022/06/11 13:57:11;;;;;;;;;;;27.70;43.40;;;;;;4962197;28;20297;-61
2022/06/11 13:59:56;;;;;;;;;;;27.90;45.10;;;;;;4968398;28;20363;-61
2022/06/11 14:02:40;;;;;;;;;;;27.80;45.90;;;;;;4969690;28;19914;-62
2022/06/11 14:05:07;;;;;;;;;;;27.50;44.90;;;;;;4969356;28;19925;-61
2022/06/11 14:07:35;;;;;;;;;;;26.90;44.50;;;;;;4969404;28;19948;-62
2022/06/11 14:10:21;;;;;;;;;;;26.90;49.00;;;;;;4969312;28;19913;-60
2022/06/11 14:12:50;;;;;;;;;;;26.40;47.50;;;;;;4968459;28;19913;-61
2022/06/11 14:15:15;;;;;;;;;;;26.30;51.20;;;;;;4969176;28;19906;-61
2022/06/11 14:17:46;;;;;;;;;;;26.10;50.00;;;;;;4968925;28;20276;-61
2022/06/11 14:20:17;;;;;;;;;;;26.30;47.90;;;;;;4968689;28;20256;-61
2022/06/11 14:22:45;;;;;;;;;;;25.90;51.20;;;;;;4967939;28;19918;-60
2022/06/11 14:25:31;;;;;;;;;;;25.90;51.90;;;;;;4969072;28;19921;-60
2022/06/11 14:27:56;;;;;;;;;;;25.80;55.00;;;;;;4969169;28;20343;-60
2022/06/11 14:30:24;;;;;;;;;;;24.70;55.00;;;;;;4968794;28;20331;-60
2022/06/11 14:32:59;;;;;;;;;;;24.30;57.80;;;;;;4968696;28;19906;-60
2022/06/11 14:35:29;;;;;;;;;;;24.40;60.50;;;;;;4968953;28;19914;-60
2022/06/11 14:38:14;;;;;;;;;;;24.10;60.10;;;;;;4968803;28;19918;-60